Time;durP1;ratioP1;P1;durP2;ratioP2;P2;SDS_P1;SDS_P2;PMS_P1;PMS_P2;Temp;Humidity;BMP_temperature;BMP_pressure;BME280_temperature;BME280_humidity;BME280_pressure;Samples;Min_cycle;Max_cycle;Signal;HPM_P1;HPM_P2
2023/07/04 00:01:15;;;;;;;2.83;2.60;;;;;;;;;;7305992;19;140774;-74
2023/07/04 00:03:44;;;;;;;2.92;2.45;;;;;;;;;;7306333;19;140540;-74
2023/07/04 00:06:18;;;;;;;2.90;2.60;;;;;;;;;;7305016;19;140971;-73
2023/07/04 00:08:45;;;;;;;2.83;2.53;;;;;;;;;;7304934;19;141989;-73
2023/07/04 00:11:13;;;;;;;2.47;2.22;;;;;;;;;;7306589;19;140497;-73
2023/07/04 00:13:40;;;;;;;2.50;2.30;;;;;;;;;;7303894;19;140517;-73
2023/07/04 00:16:11;;;;;;;3.05;2.75;;;;;;;;;;7304606;19;141298;-74
2023/07/04 00:18:38;;;;;;;;;;;;;;;;;;7305993;19;141872;-74
2023/07/04 00:21:12;;;;;;;3.70;2.67;;;;;;;;;;7304927;19;143664;-74
2023/07/04 00:23:41;;;;;;;3.05;2.22;;;;;;;;;;7304129;19;140471;-73
2023/07/04 00:26:09;;;;;;;2.55;2.20;;;;;;;;;;7305051;19;142645;-74
2023/07/04 00:28:38;;;;;;;3.50;2.40;;;;;;;;;;7304881;19;142035;-75
2023/07/04 00:31:07;;;;;;;2.55;2.30;;;;;;;;;;7304244;19;140980;-75
2023/07/04 00:33:34;;;;;;;2.97;2.33;;;;;;;;;;7304052;19;140564;-74
2023/07/04 00:36:17;;;;;;;2.85;2.40;;;;;;;;;;7304446;19;141803;-74
2023/07/04 00:38:49;;;;;;;2.72;2.40;;;;;;;;;;7304262;19;142007;-74
2023/07/04 00:41:23;;;;;;;2.45;2.20;;;;;;;;;;7304960;19;140777;-74
2023/07/04 00:44:13;;;;;;;2.42;2.20;;;;;;;;;;7304408;19;140481;-74
2023/07/04 00:46:54;;;;;;;3.38;2.47;;;;;;;;;;7304504;19;141259;-75
2023/07/04 00:49:26;;;;;;;2.33;2.13;;;;;;;;;;7304361;19;142712;-74
2023/07/04 00:52:02;;;;;;;2.70;2.30;;;;;;;;;;7303853;19;140786;-74
2023/07/04 00:54:35;;;;;;;2.05;1.90;;;;;;;;;;7303991;19;140661;-75
2023/07/04 00:57:06;;;;;;;2.40;2.05;;;;;;;;;;7303980;19;140691;-75
2023/07/04 00:59:43;;;;;;;2.75;2.30;;;;;;;;;;7304237;19;141328;-74
2023/07/04 01:02:13;;;;;;;2.55;2.33;;;;;;;;;;7304468;19;140480;-74
2023/07/04 01:04:40;;;;;;;3.63;2.22;;;;;;;;;;7303681;19;140441;-74
2023/07/04 01:07:36;;;;;;;3.25;2.38;;;;;;;;;;7303407;19;142221;-76
2023/07/04 01:10:11;;;;;;;2.78;2.28;;;;;;;;;;7302722;19;141908;-76
2023/07/04 01:12:39;;;;;;;2.38;2.13;;;;;;;;;;7304007;19;140566;-76
2023/07/04 01:15:08;;;;;;;2.45;2.08;;;;;;;;;;7302327;19;140526;-77
2023/07/04 01:17:36;;;;;;;2.58;2.30;;;;;;;;;;7303557;19;140665;-75
2023/07/04 01:20:08;;;;;;;2.60;2.33;;;;;;;;;;7303005;19;141769;-75
2023/07/04 01:22:44;;;;;;;2.35;2.10;;;;;;;;;;7303445;19;140374;-75
2023/07/04 01:25:20;;;;;;;2.70;2.42;;;;;;;;;;7302758;19;140563;-74
2023/07/04 01:27:51;;;;;;;2.35;2.15;;;;;;;;;;7303133;19;142190;-75
2023/07/04 01:30:18;;;;;;;2.58;2.10;;;;;;;;;;7302981;19;141133;-74
2023/07/04 01:32:52;;;;;;;2.63;2.20;;;;;;;;;;7302826;19;140643;-74
2023/07/04 01:35:22;;;;;;;2.80;2.40;;;;;;;;;;7303593;19;140546;-74
2023/07/04 01:37:50;;;;;;;;;;;;;;;;;;7303234;19;140432;-75
2023/07/04 01:40:17;;;;;;;2.60;2.33;;;;;;;;;;7300726;19;150579;-75
2023/07/04 01:42:45;;;;;;;2.78;2.33;;;;;;;;;;7301692;19;140631;-75
2023/07/04 01:45:12;;;;;;;3.10;2.38;;;;;;;;;;7301376;19;140377;-74
2023/07/04 01:47:39;;;;;;;2.25;2.00;;;;;;;;;;7302249;19;141242;-74
2023/07/04 01:50:08;;;;;;;2.40;2.10;;;;;;;;;;7302519;19;141141;-74
2023/07/04 01:52:36;;;;;;;2.10;1.90;;;;;;;;;;7302254;19;140382;-74
2023/07/04 01:55:04;;;;;;;2.03;1.83;;;;;;;;;;7299972;19;140909;-74
2023/07/04 01:57:32;;;;;;;2.33;2.13;;;;;;;;;;7302510;19;141232;-74
2023/07/04 01:59:59;;;;;;;3.38;2.28;;;;;;;;;;7301966;19;140732;-75
2023/07/04 02:02:26;;;;;;;2.25;2.05;;;;;;;;;;7301778;19;140607;-75
2023/07/04 02:04:54;;;;;;;2.42;2.13;;;;;;;;;;7302360;19;140683;-74
2023/07/04 02:07:21;;;;;;;3.05;2.35;;;;;;;;;;7301073;19;141415;-74
2023/07/04 02:09:49;;;;;;;2.40;2.17;;;;;;;;;;7301042;19;142068;-74
2023/07/04 02:12:18;;;;;;;2.67;2.22;;;;;;;;;;7302293;19;140446;-74
2023/07/04 02:14:45;;;;;;;2.78;2.05;;;;;;;;;;7301761;19;140593;-74
2023/07/04 02:17:12;;;;;;;2.70;2.08;;;;;;;;;;7301059;19;141416;-74
2023/07/04 02:19:39;;;;;;;2.70;2.20;;;;;;;;;;7299971;19;142578;-74
2023/07/04 02:22:07;;;;;;;2.45;1.90;;;;;;;;;;7301097;19;140547;-74
2023/07/04 02:24:34;;;;;;;2.17;1.98;;;;;;;;;;7300639;19;140790;-74
2023/07/04 02:27:02;;;;;;;2.53;2.33;;;;;;;;;;7302415;19;140745;-74
2023/07/04 02:29:29;;;;;;;2.35;2.10;;;;;;;;;;7302709;19;142670;-74
2023/07/04 02:31:56;;;;;;;3.15;1.98;;;;;;;;;;7301172;19;140813;-74
2023/07/04 02:34:24;;;;;;;2.78;2.10;;;;;;;;;;7301564;19;140781;-75
2023/07/04 02:36:51;;;;;;;2.10;1.90;;;;;;;;;;7300583;19;141270;-75
2023/07/04 02:39:18;;;;;;;2.13;1.88;;;;;;;;;;7300827;19;142581;-75
2023/07/04 02:41:45;;;;;;;2.10;1.90;;;;;;;;;;7301407;19;140451;-75
2023/07/04 02:44:12;;;;;;;2.67;2.03;;;;;;;;;;7301099;19;140435;-75
2023/07/04 02:46:39;;;;;;;1.90;1.75;;;;;;;;;;7300366;19;140669;-75
2023/07/04 02:49:07;;;;;;;2.20;2.00;;;;;;;;;;7300078;19;142472;-75
2023/07/04 02:51:34;;;;;;;2.45;1.80;;;;;;;;;;7299239;19;140682;-74
2023/07/04 02:54:01;;;;;;;2.22;1.98;;;;;;;;;;7300541;19;140419;-75
2023/07/04 02:56:30;;;;;;;2.20;2.00;;;;;;;;;;7306217;19;141248;-73
2023/07/04 02:58:57;;;;;;;2.15;1.90;;;;;;;;;;7307813;19;142033;-74
2023/07/04 03:01:25;;;;;;;2.28;2.05;;;;;;;;;;7307668;19;140527;-74
2023/07/04 03:03:52;;;;;;;1.90;1.67;;;;;;;;;;7307150;19;140519;-75
2023/07/04 03:06:22;;;;;;;2.17;1.98;;;;;;;;;;7307274;19;141548;-74
2023/07/04 03:08:49;;;;;;;2.37;1.90;;;;;;;;;;7307275;19;141389;-74
2023/07/04 03:11:16;;;;;;;2.40;2.20;;;;;;;;;;7306567;19;140902;-74
2023/07/04 03:13:44;;;;;;;2.33;1.90;;;;;;;;;;7307637;19;140852;-74
2023/07/04 03:16:11;;;;;;;2.22;1.90;;;;;;;;;;7307072;19;141531;-75
2023/07/04 03:18:38;;;;;;;2.10;1.90;;;;;;;;;;7306781;19;142177;-73
2023/07/04 03:21:05;;;;;;;2.10;1.90;;;;;;;;;;7307134;19;140522;-73
2023/07/04 03:23:33;;;;;;;2.15;1.95;;;;;;;;;;7307140;19;140405;-74
2023/07/04 03:26:00;;;;;;;1.95;1.77;;;;;;;;;;7305747;19;140597;-74
2023/07/04 03:28:27;;;;;;;2.00;1.80;;;;;;;;;;7306523;19;142263;-74
2023/07/04 03:30:55;;;;;;;2.00;1.80;;;;;;;;;;7306924;19;140501;-74
2023/07/04 03:33:22;;;;;;;2.10;1.90;;;;;;;;;;7306338;19;140577;-74
2023/07/04 03:35:50;;;;;;;2.45;1.67;;;;;;;;;;7306976;19;141246;-74
2023/07/04 03:38:26;;;;;;;2.15;1.90;;;;;;;;;;7306632;19;141879;-74
2023/07/04 03:40:53;;;;;;;1.75;1.63;;;;;;;;;;7306167;19;140857;-74
2023/07/04 03:43:22;;;;;;;2.08;1.88;;;;;;;;;;7306848;19;140876;-74
2023/07/04 03:45:50;;;;;;;1.90;1.70;;;;;;;;;;7306248;19;141183;-75
2023/07/04 03:48:18;;;;;;;1.98;1.77;;;;;;;;;;7306626;19;142764;-75
2023/07/04 03:50:45;;;;;;;2.55;1.92;;;;;;;;;;7306527;19;140891;-75
2023/07/04 03:53:12;;;;;;;1.70;1.60;;;;;;;;;;7306059;19;140640;-73
2023/07/04 03:55:40;;;;;;;1.80;1.70;;;;;;;;;;7305558;19;141546;-74
2023/07/04 03:58:07;;;;;;;2.08;1.88;;;;;;;;;;7304586;19;141538;-73
2023/07/04 04:00:34;;;;;;;2.08;1.80;;;;;;;;;;7305978;19;140494;-73
2023/07/04 04:03:01;;;;;;;2.08;1.77;;;;;;;;;;7306172;19;140480;-74
2023/07/04 04:05:29;;;;;;;1.80;1.63;;;;;;;;;;7305259;19;141529;-74
2023/07/04 04:07:57;;;;;;;1.73;1.63;;;;;;;;;;7303311;19;142092;-73
2023/07/04 04:10:24;;;;;;;1.92;1.67;;;;;;;;;;7305059;19;140537;-74
2023/07/04 04:12:51;;;;;;;1.95;1.77;;;;;;;;;;7305680;19;140453;-74
2023/07/04 04:15:18;;;;;;;2.00;1.80;;;;;;;;;;7305160;19;141993;-74
2023/07/04 04:17:45;;;;;;;1.92;1.73;;;;;;;;;;7305512;19;141829;-73
2023/07/04 04:20:13;;;;;;;1.75;1.48;;;;;;;;;;7305935;19;140617;-74
2023/07/04 04:22:44;;;;;;;2.15;1.77;;;;;;;;;;7303458;19;142309;-73
2023/07/04 04:25:16;;;;;;;1.73;1.60;;;;;;;;;;7304640;19;141213;-73
2023/07/04 04:27:48;;;;;;;1.90;1.70;;;;;;;;;;7304909;19;140852;-73
2023/07/04 04:30:15;;;;;;;2.00;1.80;;;;;;;;;;7305158;19;140650;-73
2023/07/04 04:32:44;;;;;;;1.95;1.60;;;;;;;;;;7304876;19;140465;-74
2023/07/04 04:35:13;;;;;;;1.85;1.50;;;;;;;;;;7302946;19;141934;-74
2023/07/04 04:37:40;;;;;;;1.83;1.65;;;;;;;;;;7304334;19;140963;-74
2023/07/04 04:40:08;;;;;;;1.90;1.70;;;;;;;;;;7304241;19;140574;-74
2023/07/04 04:42:35;;;;;;;1.88;1.70;;;;;;;;;;7304262;19;140621;-74
2023/07/04 04:45:03;;;;;;;1.65;1.50;;;;;;;;;;7304955;19;140832;-72
2023/07/04 04:47:34;;;;;;;2.00;1.52;;;;;;;;;;7304246;19;141046;-73
2023/07/04 04:50:02;;;;;;;1.60;1.50;;;;;;;;;;7307233;19;140580;-72
2023/07/04 04:52:33;;;;;;;1.38;1.25;;;;;;;;;;7304361;19;140696;-78
2023/07/04 04:55:03;;;;;;;1.90;1.70;;;;;;;;;;7303011;19;140963;-73
2023/07/04 04:57:30;;;;;;;;;;;;;;;;;;7304381;19;142664;-74
2023/07/04 04:59:59;;;;;;;4.47;1.60;;;;;;;;;;7302868;19;142655;-72
2023/07/04 05:02:29;;;;;;;;;;;;;;;;;;7304851;19;140948;-73
2023/07/04 05:04:58;;;;;;;2.20;1.65;;;;;;;;;;7304684;19;140412;-73
2023/07/04 05:07:27;;;;;;;2.07;1.50;;;;;;;;;;7304218;19;140732;-73
2023/07/04 05:09:56;;;;;;;1.50;1.40;;;;;;;;;;7303559;19;140468;-72
2023/07/04 05:12:23;;;;;;;2.10;1.63;;;;;;;;;;7304006;19;140574;-73
2023/07/04 05:14:51;;;;;;;2.55;1.80;;;;;;;;;;7303445;19;142016;-72
2023/07/04 05:17:18;;;;;;;2.05;1.85;;;;;;;;;;7302282;19;141900;-74
2023/07/04 05:19:49;;;;;;;3.28;1.85;;;;;;;;;;7303237;19;140583;-74
2023/07/04 05:22:18;;;;;;;1.73;1.60;;;;;;;;;;7303194;19;140517;-74
2023/07/04 05:24:46;;;;;;;1.88;1.60;;;;;;;;;;7302876;19;142156;-75
2023/07/04 05:27:13;;;;;;;3.58;1.80;;;;;;;;;;7302584;19;142733;-74
2023/07/04 05:29:40;;;;;;;3.17;1.80;;;;;;;;;;7303716;19;141067;-74
2023/07/04 05:32:10;;;;;;;2.10;1.58;;;;;;;;;;7303121;19;140483;-72
2023/07/04 05:34:38;;;;;;;2.60;1.60;;;;;;;;;;7303288;19;142706;-73
2023/07/04 05:37:05;;;;;;;2.47;1.92;;;;;;;;;;7301754;19;142875;-73
2023/07/04 05:39:33;;;;;;;2.65;1.60;;;;;;;;;;7301309;19;140694;-73
2023/07/04 05:42:00;;;;;;;1.40;1.30;;;;;;;;;;7302559;19;140584;-73
2023/07/04 05:44:27;;;;;;;2.20;1.90;;;;;;;;;;7302438;19;141229;-73
2023/07/04 05:46:55;;;;;;;2.10;1.90;;;;;;;;;;7302377;19;142933;-73
2023/07/04 05:49:22;;;;;;;2.30;1.60;;;;;;;;;;7303636;19;140427;-72
2023/07/04 05:51:49;;;;;;;1.70;1.60;;;;;;;;;;7302487;19;140638;-72
2023/07/04 05:54:16;;;;;;;2.17;1.52;;;;;;;;;;7302289;19;140394;-72
2023/07/04 05:56:44;;;;;;;3.33;1.60;;;;;;;;;;7300235;19;140705;-73
2023/07/04 05:59:11;;;;;;;2.38;1.77;;;;;;;;;;7301730;19;141245;-75
2023/07/04 06:01:41;;;;;;;2.50;1.52;;;;;;;;;;7300829;19;140655;-72
2023/07/04 06:04:10;;;;;;;1.73;1.60;;;;;;;;;;7302055;19;141834;-73
2023/07/04 06:06:40;;;;;;;1.40;1.30;;;;;;;;;;7299706;19;141789;-73
2023/07/04 06:09:11;;;;;;;1.50;1.40;;;;;;;;;;7301889;19;140591;-73
2023/07/04 06:11:45;;;;;;;1.60;1.38;;;;;;;;;;7301338;19;140671;-73
2023/07/04 06:14:17;;;;;;;1.83;1.73;;;;;;;;;;7301205;19;141381;-74
2023/07/04 06:16:44;;;;;;;1.50;1.40;;;;;;;;;;7299896;19;141901;-73
2023/07/04 06:19:11;;;;;;;1.25;1.15;;;;;;;;;;7301435;19;140834;-73
2023/07/04 06:21:38;;;;;;;1.48;1.15;;;;;;;;;;7300229;19;140738;-73
2023/07/04 06:24:11;;;;;;;1.65;1.50;;;;;;;;;;7300003;19;141465;-73
2023/07/04 06:26:39;;;;;;;1.52;1.40;;;;;;;;;;7300527;19;140869;-73
2023/07/04 06:29:06;;;;;;;1.70;1.50;;;;;;;;;;7299833;19;140623;-73
2023/07/04 06:31:33;;;;;;;1.70;1.23;;;;;;;;;;7300740;19;140549;-74
2023/07/04 06:34:00;;;;;;;1.30;1.20;;;;;;;;;;7300684;19;141491;-75
2023/07/04 06:36:30;;;;;;;1.75;1.42;;;;;;;;;;7301390;19;142474;-74
2023/07/04 06:39:01;;;;;;;1.60;1.50;;;;;;;;;;7301042;19;140555;-75
2023/07/04 06:41:28;;;;;;;1.30;1.20;;;;;;;;;;7299803;19;140473;-75
2023/07/04 06:43:55;;;;;;;1.48;1.30;;;;;;;;;;7299086;19;142066;-74
2023/07/04 06:46:23;;;;;;;1.50;1.40;;;;;;;;;;7300415;19;143146;-74
2023/07/04 06:48:51;;;;;;;1.40;1.30;;;;;;;;;;7300569;19;140723;-74
2023/07/04 06:51:19;;;;;;;1.40;1.30;;;;;;;;;;7300564;19;140507;-74
2023/07/04 06:53:50;;;;;;;1.42;1.33;;;;;;;;;;7300329;19;141717;-74
2023/07/04 06:56:22;;;;;;;1.60;1.50;;;;;;;;;;7299725;19;142087;-74
2023/07/04 06:58:52;;;;;;;1.42;1.33;;;;;;;;;;7300627;19;140554;-74
2023/07/04 07:01:23;;;;;;;1.30;1.20;;;;;;;;;;7299942;19;140581;-73
2023/07/04 07:03:50;;;;;;;1.30;1.20;;;;;;;;;;7299509;19;140475;-74
2023/07/04 07:06:19;;;;;;;1.55;1.30;;;;;;;;;;7299893;19;141849;-73
2023/07/04 07:08:46;;;;;;;1.30;1.20;;;;;;;;;;7300335;19;140450;-73
2023/07/04 07:11:16;;;;;;;1.40;1.30;;;;;;;;;;7299269;19;140508;-73
2023/07/04 07:13:44;;;;;;;1.53;1.43;;;;;;;;;;7299747;19;141257;-73
2023/07/04 07:16:17;;;;;;;1.17;1.08;;;;;;;;;;7299581;19;141858;-73
2023/07/04 07:18:46;;;;;;;1.25;1.15;;;;;;;;;;7300064;19;140473;-73
2023/07/04 07:21:18;;;;;;;1.30;1.20;;;;;;;;;;7299425;19;140684;-73
2023/07/04 07:23:45;;;;;;;1.42;1.33;;;;;;;;;;7298814;19;141380;-73
2023/07/04 07:26:17;;;;;;;1.40;1.30;;;;;;;;;;7298492;19;142024;-73
2023/07/04 07:28:48;;;;;;;1.25;1.15;;;;;;;;;;7299435;19;140548;-73
2023/07/04 07:31:19;;;;;;;1.30;1.20;;;;;;;;;;7297492;19;140682;-73
2023/07/04 07:33:48;;;;;;;1.38;1.27;;;;;;;;;;7298985;19;141655;-73
2023/07/04 07:36:17;;;;;;;1.35;1.25;;;;;;;;;;7298647;19;141550;-73
2023/07/04 07:38:45;;;;;;;1.30;1.20;;;;;;;;;;7298376;19;140809;-74
2023/07/04 07:41:12;;;;;;;1.58;1.35;;;;;;;;;;7301154;19;140841;-72
2023/07/04 07:43:41;;;;;;;1.38;1.27;;;;;;;;;;7305307;19;142260;-75
2023/07/04 07:46:11;;;;;;;2.20;1.40;;;;;;;;;;7305905;19;142977;-76
2023/07/04 07:48:38;;;;;;;1.42;1.30;;;;;;;;;;7306334;19;140667;-73
2023/07/04 07:51:08;;;;;;;1.15;1.08;;;;;;;;;;7304989;19;140476;-73
2023/07/04 07:53:36;;;;;;;1.20;1.10;;;;;;;;;;7305889;19;141990;-75
2023/07/04 07:56:05;;;;;;;1.65;1.33;;;;;;;;;;7303387;19;140892;-74
2023/07/04 07:58:33;;;;;;;1.33;1.17;;;;;;;;;;7305575;19;140601;-75
2023/07/04 08:01:08;;;;;;;1.50;1.38;;;;;;;;;;7305663;19;140623;-75
2023/07/04 08:03:35;;;;;;;1.85;1.42;;;;;;;;;;7305646;19;140506;-73
2023/07/04 08:06:03;;;;;;;1.20;1.10;;;;;;;;;;7303448;19;142054;-74
2023/07/04 08:08:30;;;;;;;1.33;1.23;;;;;;;;;;7303259;19;140708;-74
2023/07/04 08:10:58;;;;;;;1.50;1.30;;;;;;;;;;7304969;19;140594;-74
2023/07/04 08:13:26;;;;;;;1.40;1.30;;;;;;;;;;7304847;19;141356;-74
2023/07/04 08:15:54;;;;;;;1.73;1.38;;;;;;;;;;7303345;19;141336;-74
2023/07/04 08:18:22;;;;;;;1.30;1.20;;;;;;;;;;7305363;19;140680;-73
2023/07/04 08:21:01;;;;;;;1.40;1.30;;;;;;;;;;7304779;19;140633;-77
2023/07/04 08:23:28;;;;;;;1.30;1.20;;;;;;;;;;7303253;19;142512;-77
2023/07/04 08:25:56;;;;;;;1.30;1.20;;;;;;;;;;7304331;19;141890;-76
2023/07/04 08:28:23;;;;;;;1.40;1.30;;;;;;;;;;7303482;19;140503;-76
2023/07/04 08:30:51;;;;;;;1.48;1.38;;;;;;;;;;7305074;19;140582;-77
2023/07/04 08:33:19;;;;;;;1.48;1.38;;;;;;;;;;7303489;19;140469;-76
2023/07/04 08:35:54;;;;;;;1.40;1.30;;;;;;;;;;7302739;19;141003;-75
2023/07/04 08:38:21;;;;;;;1.35;1.25;;;;;;;;;;7304775;19;140719;-75
2023/07/04 08:40:49;;;;;;;1.90;1.35;;;;;;;;;;7304360;19;140507;-75
2023/07/04 08:43:24;;;;;;;1.40;1.30;;;;;;;;;;7303877;19;141201;-75
2023/07/04 08:45:52;;;;;;;1.45;1.35;;;;;;;;;;7302871;19;142530;-75
2023/07/04 08:48:21;;;;;;;1.40;1.30;;;;;;;;;;7304015;19;140425;-75
2023/07/04 08:50:51;;;;;;;1.23;1.13;;;;;;;;;;7302810;19;140814;-75
2023/07/04 08:53:22;;;;;;;;;;;;;;;;;;7303518;19;140812;-75
2023/07/04 08:56:08;;;;;;;1.23;1.13;;;;;;;;;;7303559;19;141209;-75
2023/07/04 08:58:48;;;;;;;1.63;1.48;;;;;;;;;;7304413;19;140485;-75
2023/07/04 09:01:33;;;;;;;1.30;1.20;;;;;;;;;;7303696;19;140482;-77
2023/07/04 09:04:11;;;;;;;1.67;1.58;;;;;;;;;;7303219;19;141327;-77
2023/07/04 09:07:04;;;;;;;1.40;1.30;;;;;;;;;;7302228;19;140864;-76
2023/07/04 09:10:04;;;;;;;1.55;1.45;;;;;;;;;;7302250;19;140632;-76
2023/07/04 09:12:36;;;;;;;1.48;1.38;;;;;;;;;;7301921;19;140682;-76
2023/07/04 09:15:20;;;;;;;1.98;1.50;;;;;;;;;;7301643;19;140678;-76
2023/07/04 09:18:01;;;;;;;1.48;1.38;;;;;;;;;;7302751;19;141897;-76
2023/07/04 09:20:59;;;;;;;1.60;1.50;;;;;;;;;;7302727;19;141198;-76
2023/07/04 09:23:27;;;;;;;1.45;1.35;;;;;;;;;;7303452;19;140738;-75
2023/07/04 09:25:56;;;;;;;1.48;1.38;;;;;;;;;;7302783;19;141478;-75
2023/07/04 09:28:25;;;;;;;1.70;1.60;;;;;;;;;;7302137;19;142030;-75
2023/07/04 09:30:56;;;;;;;1.45;1.20;;;;;;;;;;7302296;19;140380;-76
2023/07/04 09:33:27;;;;;;;1.40;1.30;;;;;;;;;;7304079;19;140522;-76
2023/07/04 09:35:57;;;;;;;1.70;1.45;;;;;;;;;;7303194;19;140781;-76
2023/07/04 09:38:24;;;;;;;;;;;;;;;;;;7302292;19;141902;-75
2023/07/04 09:40:55;;;;;;;1.42;1.30;;;;;;;;;;7304713;19;142217;-75
2023/07/04 09:43:32;;;;;;;1.48;1.33;;;;;;;;;;7302329;19;140666;-75
2023/07/04 09:46:19;;;;;;;1.95;1.50;;;;;;;;;;7303247;19;140693;-75
2023/07/04 09:48:46;;;;;;;1.48;1.38;;;;;;;;;;7301018;19;140723;-75
2023/07/04 09:51:22;;;;;;;1.60;1.50;;;;;;;;;;7303653;19;140623;-75
2023/07/04 09:53:49;;;;;;;1.42;1.33;;;;;;;;;;7303714;19;140708;-76
2023/07/04 09:56:25;;;;;;;1.67;1.30;;;;;;;;;;7301505;19;141761;-75
2023/07/04 09:59:13;;;;;;;1.42;1.30;;;;;;;;;;7301189;19;142209;-76
2023/07/04 10:01:43;;;;;;;1.58;1.48;;;;;;;;;;7302903;19;140479;-76
2023/07/04 10:04:13;;;;;;;1.55;1.42;;;;;;;;;;7300500;19;140680;-75
2023/07/04 10:06:43;;;;;;;1.50;1.40;;;;;;;;;;7302176;19;141032;-77
2023/07/04 10:09:20;;;;;;;1.65;1.40;;;;;;;;;;7302416;19;143647;-77
2023/07/04 10:11:50;;;;;;;1.48;1.35;;;;;;;;;;7301035;19;140827;-77
2023/07/04 10:14:32;;;;;;;1.37;1.27;;;;;;;;;;7302224;19;140760;-76
2023/07/04 10:17:14;;;;;;;1.55;1.40;;;;;;;;;;7301515;19;140434;-76
2023/07/04 10:19:45;;;;;;;1.60;1.50;;;;;;;;;;7299692;19;141794;-74
2023/07/04 10:22:13;;;;;;;1.98;1.63;;;;;;;;;;7301156;19;140452;-74
2023/07/04 10:24:40;;;;;;;1.73;1.50;;;;;;;;;;7300118;19;140684;-75
2023/07/04 10:27:12;;;;;;;1.70;1.60;;;;;;;;;;7298899;19;141280;-76
2023/07/04 10:29:45;;;;;;;1.90;1.70;;;;;;;;;;7302951;19;142678;-75
2023/07/04 10:32:15;;;;;;;2.25;1.50;;;;;;;;;;7300460;19;140701;-74
2023/07/04 10:34:43;;;;;;;;;;;;;;;;;;7300674;19;140633;-77
2023/07/04 10:37:18;;;;;;;1.50;1.40;;;;;;;;;;7301412;19;140659;-75
2023/07/04 10:39:46;;;;;;;1.52;1.42;;;;;;;;;;7300216;19;141538;-77
2023/07/04 10:42:21;;;;;;;1.60;1.48;;;;;;;;;;7298911;19;140478;-76
2023/07/04 10:44:52;;;;;;;1.50;1.40;;;;;;;;;;7301284;19;140723;-76
2023/07/04 10:47:34;;;;;;;2.05;1.70;;;;;;;;;;7299463;19;141437;-76
2023/07/04 10:50:08;;;;;;;2.30;1.67;;;;;;;;;;7299663;19;143259;-78
2023/07/04 10:52:36;;;;;;;2.05;1.80;;;;;;;;;;7300927;19;140564;-77
2023/07/04 10:55:06;;;;;;;1.88;1.65;;;;;;;;;;7297893;19;141196;-74
2023/07/04 10:57:44;;;;;;;1.73;1.63;;;;;;;;;;7293929;19;140665;-77
2023/07/04 11:00:58;;;;;;;1.98;1.65;;;;;;;;;;7295454;19;141806;-73
2023/07/04 11:03:44;;;;;;;2.10;1.50;;;;;;;;;;7293846;19;140730;-77
2023/07/04 11:06:43;;;;;;;1.70;1.50;;;;;;;;;;7293502;19;140957;-75
2023/07/04 11:09:16;;;;;;;1.95;1.77;;;;;;;;;;7290914;19;141534;-76
2023/07/04 11:11:50;;;;;;;1.70;1.60;;;;;;;;;;7299014;19;144305;-74
2023/07/04 11:14:30;;;;;;;2.17;1.60;;;;;;;;;;7300448;19;140681;-74
2023/07/04 11:16:59;;;;;;;;;;;;;;;;;;7305240;19;140569;-74
2023/07/04 11:19:30;;;;;;;3.13;1.40;;;;;;;;;;7305848;19;152350;-72
2023/07/04 11:22:01;;;;;;;2.00;1.60;;;;;;;;;;7306875;19;141954;-73
2023/07/04 11:25:00;;;;;;;;;;;;;;;;;;7307301;19;140731;-73
2023/07/04 11:27:32;;;;;;;2.13;1.67;;;;;;;;;;7303731;19;141827;-75
2023/07/04 11:30:05;;;;;;;1.95;1.60;;;;;;;;;;7304920;19;141873;-73
2023/07/04 11:32:54;;;;;;;1.70;1.55;;;;;;;;;;7307060;19;142606;-74
2023/07/04 11:35:36;;;;;;;2.10;1.67;;;;;;;;;;7305822;19;140614;-78
2023/07/04 11:38:09;;;;;;;2.22;1.95;;;;;;;;;;7306695;19;140659;-73
2023/07/04 11:40:45;;;;;;;2.25;1.70;;;;;;;;;;7305103;19;140973;-75
2023/07/04 11:43:21;;;;;;;2.00;1.80;;;;;;;;;;7305987;19;141753;-76
2023/07/04 11:45:49;;;;;;;2.70;1.80;;;;;;;;;;7307394;19;140511;-76
2023/07/04 11:48:18;;;;;;;2.83;2.00;;;;;;;;;;7304499;19;141307;-76
2023/07/04 11:50:51;;;;;;;2.75;2.00;;;;;;;;;;7303854;19;142568;-77
2023/07/04 11:53:32;;;;;;;2.50;2.05;;;;;;;;;;7306908;19;142339;-77
2023/07/04 11:56:19;;;;;;;2.33;2.00;;;;;;;;;;7305822;19;140752;-79
2023/07/04 11:58:46;;;;;;;2.75;2.03;;;;;;;;;;7304819;19;142158;-79
2023/07/04 12:01:17;;;;;;;2.65;2.20;;;;;;;;;;7304381;19;140887;-79
2023/07/04 12:04:04;;;;;;;2.35;2.15;;;;;;;;;;7302669;19;143110;-78
2023/07/04 12:06:46;;;;;;;2.20;2.00;;;;;;;;;;7306087;19;140492;-80
2023/07/04 12:09:23;;;;;;;2.40;2.20;;;;;;;;;;7306335;19;140684;-77
2023/07/04 12:15:22;;;;;;;2.67;2.40;;;;;;;;;;7306383;19;146942;-80
2023/07/04 12:17:52;;;;;;;3.47;2.40;;;;;;;;;;7307221;19;140398;-78
2023/07/04 12:20:20;;;;;;;2.53;2.13;;;;;;;;;;7306595;19;141697;-79
2023/07/04 12:22:52;;;;;;;2.75;2.30;;;;;;;;;;7306364;19;140608;-80
2023/07/04 12:26:07;;;;;;;2.73;2.00;;;;;;;;;;7303709;19;141437;-80
2023/07/04 12:28:36;;;;;;;2.92;2.30;;;;;;;;;;7302638;19;140741;-79
2023/07/04 12:31:08;;;;;;;3.30;2.63;;;;;;;;;;7305501;19;140866;-80
2023/07/04 12:33:58;;;;;;;3.65;2.53;;;;;;;;;;7304473;19;142048;-79
2023/07/04 12:36:37;;;;;;;4.18;2.70;;;;;;;;;;7310818;19;142141;-84
2023/07/04 12:39:07;;;;;;;3.33;2.90;;;;;;;;;;7313923;19;140822;-87
2023/07/04 12:41:38;;;;;;;3.08;2.65;;;;;;;;;;7312423;19;140333;-93
2023/07/04 12:44:16;;;;;;;3.75;2.67;;;;;;;;;;7309872;19;141670;-83
2023/07/04 12:46:46;;;;;;;3.97;2.72;;;;;;;;;;7308914;19;142500;-86
2023/07/04 12:52:39;;;;;;;4.30;3.45;;;;;;;;;;7304972;19;140655;-78
2023/07/04 12:55:20;;;;;;;3.23;2.90;;;;;;;;;;7305463;19;141331;-82
2023/07/04 12:57:50;;;;;;;5.03;3.65;;;;;;;;;;7304239;19;142831;-82
2023/07/04 13:00:31;;;;;;;7.77;6.43;;;;;;;;;;7314100;19;140732;-80
2023/07/04 13:03:05;;;;;;;6.93;5.35;;;;;;;;;;7321173;19;140517;-78
2023/07/04 13:05:40;;;;;;;7.97;6.10;;;;;;;;;;7333906;19;140080;-87
2023/07/04 13:08:22;;;;;;;7.55;6.80;;;;;;;;;;7332379;19;141788;-86
2023/07/04 13:10:57;;;;;;;7.85;6.80;;;;;;;;;;7333616;19;139916;-86
2023/07/04 13:13:37;;;;;;;9.52;8.35;;;;;;;;;;7329812;19;140438;-85
2023/07/04 13:16:30;;;;;;;9.70;8.07;;;;;;;;;;7323279;19;141797;-86
2023/07/04 13:19:19;;;;;;;8.40;7.55;;;;;;;;;;7325023;19;140536;-85
2023/07/04 13:21:49;;;;;;;8.25;7.38;;;;;;;;;;7307364;19;140532;-77
2023/07/04 13:24:28;;;;;;;9.65;8.15;;;;;;;;;;7303132;19;140695;-85
2023/07/04 13:27:08;;;;;;;8.57;6.93;;;;;;;;;;7306223;19;142559;-85
2023/07/04 13:29:52;;;;;;;10.32;7.38;;;;;;;;;;7303659;19;140728;-86
2023/07/04 13:32:42;;;;;;;8.15;6.93;;;;;;;;;;7303919;19;140313;-81
2023/07/04 13:35:31;;;;;;;10.73;8.93;;;;;;;;;;7303271;19;140519;-79
2023/07/04 13:37:58;;;;;;;8.70;7.78;;;;;;;;;;7304153;19;142212;-80
2023/07/04 13:40:29;;;;;;;10.07;7.72;;;;;;;;;;7301106;19;141665;-82
2023/07/04 13:43:14;;;;;;;11.57;8.07;;;;;;;;;;7302365;19;140614;-76
2023/07/04 13:45:44;;;;;;;9.00;8.00;;;;;;;;;;7303137;19;140427;-76
2023/07/04 13:48:12;;;;;;;9.15;7.63;;;;;;;;;;7301522;19;141306;-80
2023/07/04 13:50:39;;;;;;;8.13;7.32;;;;;;;;;;7303348;19;141150;-77
2023/07/04 13:53:08;;;;;;;7.97;6.82;;;;;;;;;;7304596;19;140358;-74
2023/07/04 13:55:38;;;;;;;12.43;6.95;;;;;;;;;;7303038;19;140499;-79
2023/07/04 13:58:06;;;;;;;7.90;6.50;;;;;;;;;;7301267;19;141247;-77
2023/07/04 14:00:33;;;;;;;8.25;6.80;;;;;;;;;;7302151;19;142848;-77
2023/07/04 14:03:22;;;;;;;7.15;6.13;;;;;;;;;;7301783;19;140971;-76
2023/07/04 14:05:53;;;;;;;9.02;6.50;;;;;;;;;;7301436;19;140846;-75
2023/07/04 14:08:28;;;;;;;7.93;6.43;;;;;;;;;;7301687;19;141201;-76
2023/07/04 14:11:11;;;;;;;8.13;6.45;;;;;;;;;;7301620;19;142385;-77
2023/07/04 14:13:39;;;;;;;6.85;5.72;;;;;;;;;;7300341;19;140835;-77
2023/07/04 14:16:10;;;;;;;7.15;6.10;;;;;;;;;;7301858;19;140596;-77
2023/07/04 14:18:40;;;;;;;7.22;5.63;;;;;;;;;;7300864;19;140571;-76
2023/07/04 14:21:11;;;;;;;;;;;;;;;;;;7302281;19;141323;-74
2023/07/04 14:23:40;;;;;;;6.00;5.18;;;;;;;;;;7301097;19;140561;-74
2023/07/04 14:26:13;;;;;;;5.97;5.38;;;;;;;;;;7301539;19;140668;-75
2023/07/04 14:28:42;;;;;;;7.05;5.50;;;;;;;;;;7300401;19;140685;-78
2023/07/04 14:31:09;;;;;;;6.32;5.40;;;;;;;;;;7300796;19;141822;-78
2023/07/04 14:33:37;;;;;;;5.40;4.90;;;;;;;;;;7301563;19;140516;-77
2023/07/04 14:36:05;;;;;;;5.63;4.93;;;;;;;;;;7302139;19;140509;-82
2023/07/04 14:38:34;;;;;;;6.32;4.65;;;;;;;;;;7301401;19;141285;-79
2023/07/04 14:41:06;;;;;;;5.47;4.70;;;;;;;;;;7300886;19;142867;-79
2023/07/04 14:43:37;;;;;;;5.20;4.63;;;;;;;;;;7300087;19;140496;-78
2023/07/04 14:46:06;;;;;;;4.65;4.13;;;;;;;;;;7300874;19;140421;-77
2023/07/04 14:48:37;;;;;;;5.80;4.20;;;;;;;;;;7300563;19;140937;-78
2023/07/04 14:51:11;;;;;;;5.50;4.20;;;;;;;;;;7298012;19;142535;-78
2023/07/04 14:53:43;;;;;;;4.55;4.10;;;;;;;;;;7299300;19;140828;-78
2023/07/04 14:56:15;;;;;;;4.85;4.35;;;;;;;;;;7301336;19;140513;-79
2023/07/04 14:58:43;;;;;;;4.65;4.18;;;;;;;;;;7298768;19;140659;-77
2023/07/04 15:01:19;;;;;;;6.22;4.05;;;;;;;;;;7300084;19;141916;-76
2023/07/04 15:03:47;;;;;;;4.93;4.03;;;;;;;;;;7301660;19;140716;-76
2023/07/04 15:06:16;;;;;;;4.30;3.83;;;;;;;;;;7299959;19;140855;-79